sensor_id;sensor_type;location;lat;lon;timestamp;P1;durP1;ratioP1;P2;durP2;ratioP2
72404;SDS011;60395;52.020;113.548;2023-01-10T00:01:04;114.50;;;36.47;;
72404;SDS011;60395;52.020;113.548;2023-01-10T00:04:08;158.02;;;45.95;;
72404;SDS011;60395;52.020;113.548;2023-01-10T00:07:12;159.80;;;49.87;;
72404;SDS011;60395;52.020;113.548;2023-01-10T00:10:15;139.35;;;43.65;;
72404;SDS011;60395;52.020;113.548;2023-01-10T00:13:18;183.02;;;57.45;;
72404;SDS011;60395;52.020;113.548;2023-01-10T00:16:27;247.57;;;76.85;;
72404;SDS011;60395;52.020;113.548;2023-01-10T00:19:30;233.32;;;66.88;;
72404;SDS011;60395;52.020;113.548;2023-01-10T00:22:34;243.18;;;73.13;;
72404;SDS011;60395;52.020;113.548;2023-01-10T00:25:37;150.50;;;47.40;;
72404;SDS011;60395;52.020;113.548;2023-01-10T00:31:45;119.65;;;46.45;;
72404;SDS011;60395;52.020;113.548;2023-01-10T00:34:48;177.87;;;56.17;;
72404;SDS011;60395;52.020;113.548;2023-01-10T00:37:51;159.00;;;50.30;;
72404;SDS011;60395;52.020;113.548;2023-01-10T00:40:59;186.93;;;53.80;;
72404;SDS011;60395;52.020;113.548;2023-01-10T00:44:02;164.40;;;49.25;;
72404;SDS011;60395;52.020;113.548;2023-01-10T00:47:07;205.18;;;60.40;;
72404;SDS011;60395;52.020;113.548;2023-01-10T00:50:11;197.57;;;58.70;;
72404;SDS011;60395;52.020;113.548;2023-01-10T00:53:15;191.45;;;58.90;;
72404;SDS011;60395;52.020;113.548;2023-01-10T00:56:18;230.98;;;69.15;;
72404;SDS011;60395;52.020;113.548;2023-01-10T00:59:22;242.50;;;71.88;;
72404;SDS011;60395;52.020;113.548;2023-01-10T01:02:26;279.15;;;86.85;;
72404;SDS011;60395;52.020;113.548;2023-01-10T01:05:29;274.33;;;81.57;;
72404;SDS011;60395;52.020;113.548;2023-01-10T01:08:33;269.17;;;86.67;;
72404;SDS011;60395;52.020;113.548;2023-01-10T01:11:36;303.03;;;86.20;;
72404;SDS011;60395;52.020;113.548;2023-01-10T01:14:39;286.25;;;81.25;;
72404;SDS011;60395;52.020;113.548;2023-01-10T01:17:42;261.13;;;77.50;;
72404;SDS011;60395;52.020;113.548;2023-01-10T01:20:46;288.73;;;87.22;;
72404;SDS011;60395;52.020;113.548;2023-01-10T01:23:54;274.90;;;83.95;;
72404;SDS011;60395;52.020;113.548;2023-01-10T01:26:58;281.60;;;86.82;;
72404;SDS011;60395;52.020;113.548;2023-01-10T01:30:01;303.13;;;88.20;;
72404;SDS011;60395;52.020;113.548;2023-01-10T01:33:04;251.97;;;71.67;;
72404;SDS011;60395;52.020;113.548;2023-01-10T01:36:11;188.63;;;54.33;;
72404;SDS011;60395;52.020;113.548;2023-01-10T01:39:15;163.50;;;46.50;;
72404;SDS011;60395;52.020;113.548;2023-01-10T01:42:25;138.40;;;40.78;;
72404;SDS011;60395;52.020;113.548;2023-01-10T01:48:38;118.05;;;36.83;;
72404;SDS011;60395;52.020;113.548;2023-01-10T01:51:43;135.50;;;39.42;;
72404;SDS011;60395;52.020;113.548;2023-01-10T01:54:48;145.77;;;41.22;;
72404;SDS011;60395;52.020;113.548;2023-01-10T01:57:53;202.52;;;59.63;;
72404;SDS011;60395;52.020;113.548;2023-01-10T02:00:57;290.58;;;90.80;;
72404;SDS011;60395;52.020;113.548;2023-01-10T02:04:21;417.03;;;126.13;;
72404;SDS011;60395;52.020;113.548;2023-01-10T02:07:30;413.88;;;124.95;;
72404;SDS011;60395;52.020;113.548;2023-01-10T02:11:24;432.00;;;130.38;;
72404;SDS011;60395;52.020;113.548;2023-01-10T02:14:11;437.90;;;128.38;;
72404;SDS011;60395;52.020;113.548;2023-01-10T02:17:16;336.58;;;100.85;;
72404;SDS011;60395;52.020;113.548;2023-01-10T02:20:19;265.60;;;76.13;;
72404;SDS011;60395;52.020;113.548;2023-01-10T02:37:12;246.18;;;78.97;;
72404;SDS011;60395;52.020;113.548;2023-01-10T02:40:33;277.95;;;85.55;;
72404;SDS011;60395;52.020;113.548;2023-01-10T02:43:48;326.17;;;101.50;;
72404;SDS011;60395;52.020;113.548;2023-01-10T02:46:54;446.17;;;133.57;;
72404;SDS011;60395;52.020;113.548;2023-01-10T02:49:58;398.15;;;125.35;;
72404;SDS011;60395;52.020;113.548;2023-01-10T02:53:28;353.30;;;109.03;;
72404;SDS011;60395;52.020;113.548;2023-01-10T03:03:30;331.50;;;100.88;;
72404;SDS011;60395;52.020;113.548;2023-01-10T03:06:46;353.40;;;107.03;;
72404;SDS011;60395;52.020;113.548;2023-01-10T03:09:59;310.92;;;97.47;;
72404;SDS011;60395;52.020;113.548;2023-01-10T03:13:27;375.38;;;112.63;;
72404;SDS011;60395;52.020;113.548;2023-01-10T03:16:37;480.65;;;145.30;;
72404;SDS011;60395;52.020;113.548;2023-01-10T03:19:45;527.15;;;165.23;;
72404;SDS011;60395;52.020;113.548;2023-01-10T03:22:52;522.15;;;166.13;;
72404;SDS011;60395;52.020;113.548;2023-01-10T03:25:59;539.05;;;170.10;;
72404;SDS011;60395;52.020;113.548;2023-01-10T03:29:05;534.13;;;167.40;;
72404;SDS011;60395;52.020;113.548;2023-01-10T03:32:12;504.45;;;158.13;;
72404;SDS011;60395;52.020;113.548;2023-01-10T03:35:16;522.88;;;163.88;;
72404;SDS011;60395;52.020;113.548;2023-01-10T03:38:28;546.53;;;168.35;;
72404;SDS011;60395;52.020;113.548;2023-01-10T03:42:08;518.60;;;172.75;;
72404;SDS011;60395;52.020;113.548;2023-01-10T03:45:29;494.75;;;159.63;;
72404;SDS011;60395;52.020;113.548;2023-01-10T03:48:41;456.02;;;135.52;;
72404;SDS011;60395;52.020;113.548;2023-01-10T03:51:48;474.40;;;134.63;;
72404;SDS011;60395;52.020;113.548;2023-01-10T03:54:52;372.92;;;110.60;;
72404;SDS011;60395;52.020;113.548;2023-01-10T03:57:55;366.15;;;105.40;;
72404;SDS011;60395;52.020;113.548;2023-01-10T04:00:59;381.58;;;109.32;;
72404;SDS011;60395;52.020;113.548;2023-01-10T04:04:03;377.23;;;117.82;;
72404;SDS011;60395;52.020;113.548;2023-01-10T04:07:06;529.90;;;167.65;;
72404;SDS011;60395;52.020;113.548;2023-01-10T04:10:09;514.40;;;172.13;;
72404;SDS011;60395;52.020;113.548;2023-01-10T04:13:13;502.75;;;154.02;;
72404;SDS011;60395;52.020;113.548;2023-01-10T04:16:16;501.00;;;150.45;;
72404;SDS011;60395;52.020;113.548;2023-01-10T04:19:19;465.23;;;149.13;;
72404;SDS011;60395;52.020;113.548;2023-01-10T04:22:22;459.25;;;141.43;;
72404;SDS011;60395;52.020;113.548;2023-01-10T04:25:25;542.10;;;172.60;;
72404;SDS011;60395;52.020;113.548;2023-01-10T04:28:29;527.53;;;173.20;;
72404;SDS011;60395;52.020;113.548;2023-01-10T04:31:32;509.75;;;152.93;;
72404;SDS011;60395;52.020;113.548;2023-01-10T04:34:35;532.17;;;157.05;;
72404;SDS011;60395;52.020;113.548;2023-01-10T04:37:38;493.98;;;147.82;;
72404;SDS011;60395;52.020;113.548;2023-01-10T04:40:42;485.70;;;145.38;;
72404;SDS011;60395;52.020;113.548;2023-01-10T04:43:45;547.85;;;175.25;;
72404;SDS011;60395;52.020;113.548;2023-01-10T04:46:49;388.85;;;121.97;;
72404;SDS011;60395;52.020;113.548;2023-01-10T04:49:52;330.35;;;106.53;;
72404;SDS011;60395;52.020;113.548;2023-01-10T04:52:55;354.00;;;110.00;;
72404;SDS011;60395;52.020;113.548;2023-01-10T04:56:02;435.25;;;130.15;;
72404;SDS011;60395;52.020;113.548;2023-01-10T04:59:07;544.75;;;180.32;;
72404;SDS011;60395;52.020;113.548;2023-01-10T05:02:11;572.83;;;186.95;;
72404;SDS011;60395;52.020;113.548;2023-01-10T05:05:15;679.28;;;258.85;;
72404;SDS011;60395;52.020;113.548;2023-01-10T05:08:18;726.05;;;272.58;;
72404;SDS011;60395;52.020;113.548;2023-01-10T05:11:21;694.30;;;247.13;;
72404;SDS011;60395;52.020;113.548;2023-01-10T05:14:24;716.40;;;261.58;;
72404;SDS011;60395;52.020;113.548;2023-01-10T05:17:27;742.83;;;278.38;;
72404;SDS011;60395;52.020;113.548;2023-01-10T05:20:31;663.40;;;241.65;;
72404;SDS011;60395;52.020;113.548;2023-01-10T05:23:34;687.10;;;249.98;;
72404;SDS011;60395;52.020;113.548;2023-01-10T05:26:38;645.03;;;233.85;;
72404;SDS011;60395;52.020;113.548;2023-01-10T05:29:42;513.83;;;162.13;;
72404;SDS011;60395;52.020;113.548;2023-01-10T05:32:45;484.15;;;145.55;;
72404;SDS011;60395;52.020;113.548;2023-01-10T05:35:48;523.15;;;168.85;;
72404;SDS011;60395;52.020;113.548;2023-01-10T05:38:52;459.55;;;144.35;;
72404;SDS011;60395;52.020;113.548;2023-01-10T05:41:55;354.80;;;110.88;;
72404;SDS011;60395;52.020;113.548;2023-01-10T05:44:58;305.77;;;91.75;;
72404;SDS011;60395;52.020;113.548;2023-01-10T05:48:01;252.05;;;82.78;;
72404;SDS011;60395;52.020;113.548;2023-01-10T05:51:04;342.17;;;109.40;;
72404;SDS011;60395;52.020;113.548;2023-01-10T05:54:08;365.70;;;111.88;;
72404;SDS011;60395;52.020;113.548;2023-01-10T05:57:12;553.30;;;180.90;;
72404;SDS011;60395;52.020;113.548;2023-01-10T06:00:16;727.85;;;279.10;;
72404;SDS011;60395;52.020;113.548;2023-01-10T06:03:19;720.90;;;274.83;;
72404;SDS011;60395;52.020;113.548;2023-01-10T06:06:23;725.85;;;279.92;;
72404;SDS011;60395;52.020;113.548;2023-01-10T06:09:26;718.00;;;273.30;;
72404;SDS011;60395;52.020;113.548;2023-01-10T06:12:30;712.97;;;272.10;;
72404;SDS011;60395;52.020;113.548;2023-01-10T06:15:33;705.50;;;269.40;;
72404;SDS011;60395;52.020;113.548;2023-01-10T06:18:37;681.33;;;254.98;;
72404;SDS011;60395;52.020;113.548;2023-01-10T06:21:40;677.47;;;258.33;;
72404;SDS011;60395;52.020;113.548;2023-01-10T06:24:44;625.03;;;235.82;;
72404;SDS011;60395;52.020;113.548;2023-01-10T06:27:47;620.17;;;225.10;;
72404;SDS011;60395;52.020;113.548;2023-01-10T06:30:50;365.15;;;113.90;;
72404;SDS011;60395;52.020;113.548;2023-01-10T06:33:53;442.75;;;127.72;;
72404;SDS011;60395;52.020;113.548;2023-01-10T06:36:58;403.67;;;121.25;;
72404;SDS011;60395;52.020;113.548;2023-01-10T06:40:02;329.15;;;100.75;;
72404;SDS011;60395;52.020;113.548;2023-01-10T06:43:06;338.55;;;102.88;;
72404;SDS011;60395;52.020;113.548;2023-01-10T06:46:09;449.17;;;134.10;;
72404;SDS011;60395;52.020;113.548;2023-01-10T06:49:13;491.13;;;147.95;;
72404;SDS011;60395;52.020;113.548;2023-01-10T06:52:17;507.20;;;154.35;;
72404;SDS011;60395;52.020;113.548;2023-01-10T06:55:20;488.45;;;147.95;;
72404;SDS011;60395;52.020;113.548;2023-01-10T06:58:24;477.02;;;145.70;;
72404;SDS011;60395;52.020;113.548;2023-01-10T07:01:27;319.92;;;97.28;;
72404;SDS011;60395;52.020;113.548;2023-01-10T07:04:30;302.40;;;93.57;;
72404;SDS011;60395;52.020;113.548;2023-01-10T07:07:35;282.50;;;81.97;;
72404;SDS011;60395;52.020;113.548;2023-01-10T07:10:41;272.13;;;82.43;;
72404;SDS011;60395;52.020;113.548;2023-01-10T07:13:45;256.75;;;77.05;;
72404;SDS011;60395;52.020;113.548;2023-01-10T07:16:48;202.75;;;59.17;;
72404;SDS011;60395;52.020;113.548;2023-01-10T07:19:51;178.75;;;53.45;;
72404;SDS011;60395;52.020;113.548;2023-01-10T07:22:55;199.65;;;62.08;;
72404;SDS011;60395;52.020;113.548;2023-01-10T07:26:03;198.55;;;58.42;;
72404;SDS011;60395;52.020;113.548;2023-01-10T07:29:08;186.25;;;58.90;;
72404;SDS011;60395;52.020;113.548;2023-01-10T07:32:11;196.70;;;59.78;;
72404;SDS011;60395;52.020;113.548;2023-01-10T07:35:14;187.43;;;58.30;;
72404;SDS011;60395;52.020;113.548;2023-01-10T07:38:18;194.68;;;60.35;;
72404;SDS011;60395;52.020;113.548;2023-01-10T07:41:21;225.45;;;68.97;;
72404;SDS011;60395;52.020;113.548;2023-01-10T07:44:26;199.18;;;58.25;;
72404;SDS011;60395;52.020;113.548;2023-01-10T07:47:29;215.95;;;61.75;;
72404;SDS011;60395;52.020;113.548;2023-01-10T07:50:33;184.85;;;57.40;;
72404;SDS011;60395;52.020;113.548;2023-01-10T07:53:37;220.52;;;63.08;;
72404;SDS011;60395;52.020;113.548;2023-01-10T07:56:41;210.75;;;65.40;;
72404;SDS011;60395;52.020;113.548;2023-01-10T07:59:44;193.73;;;60.20;;
72404;SDS011;60395;52.020;113.548;2023-01-10T08:02:51;232.48;;;70.45;;
72404;SDS011;60395;52.020;113.548;2023-01-10T08:05:59;263.88;;;79.53;;
72404;SDS011;60395;52.020;113.548;2023-01-10T08:09:06;266.98;;;80.57;;
72404;SDS011;60395;52.020;113.548;2023-01-10T08:12:09;323.73;;;95.97;;
72404;SDS011;60395;52.020;113.548;2023-01-10T08:15:12;298.13;;;86.80;;
72404;SDS011;60395;52.020;113.548;2023-01-10T08:18:15;366.58;;;111.13;;
72404;SDS011;60395;52.020;113.548;2023-01-10T08:21:18;419.75;;;127.53;;
72404;SDS011;60395;52.020;113.548;2023-01-10T08:24:21;433.40;;;141.38;;
72404;SDS011;60395;52.020;113.548;2023-01-10T08:27:24;502.35;;;161.50;;
72404;SDS011;60395;52.020;113.548;2023-01-10T08:30:28;529.58;;;166.73;;
72404;SDS011;60395;52.020;113.548;2023-01-10T08:33:32;455.73;;;143.38;;
72404;SDS011;60395;52.020;113.548;2023-01-10T08:36:37;424.92;;;131.30;;
72404;SDS011;60395;52.020;113.548;2023-01-10T08:39:40;433.30;;;129.20;;
72404;SDS011;60395;52.020;113.548;2023-01-10T08:42:44;430.63;;;129.95;;
72404;SDS011;60395;52.020;113.548;2023-01-10T08:45:47;443.90;;;137.02;;
72404;SDS011;60395;52.020;113.548;2023-01-10T08:48:51;546.83;;;178.73;;
72404;SDS011;60395;52.020;113.548;2023-01-10T08:51:54;591.75;;;201.85;;
72404;SDS011;60395;52.020;113.548;2023-01-10T08:54:58;629.20;;;222.02;;
72404;SDS011;60395;52.020;113.548;2023-01-10T08:58:01;602.90;;;212.40;;
72404;SDS011;60395;52.020;113.548;2023-01-10T09:01:07;540.28;;;170.55;;
72404;SDS011;60395;52.020;113.548;2023-01-10T09:04:13;493.80;;;149.77;;
72404;SDS011;60395;52.020;113.548;2023-01-10T09:07:16;413.42;;;127.28;;
72404;SDS011;60395;52.020;113.548;2023-01-10T09:10:19;407.15;;;121.63;;
72404;SDS011;60395;52.020;113.548;2023-01-10T09:13:23;193.43;;;55.85;;
72404;SDS011;60395;52.020;113.548;2023-01-10T09:16:26;279.27;;;87.78;;
72404;SDS011;60395;52.020;113.548;2023-01-10T09:19:30;293.45;;;90.28;;
72404;SDS011;60395;52.020;113.548;2023-01-10T09:22:37;280.98;;;88.78;;
72404;SDS011;60395;52.020;113.548;2023-01-10T09:25:41;229.55;;;74.30;;
72404;SDS011;60395;52.020;113.548;2023-01-10T09:28:44;125.40;;;39.58;;
72404;SDS011;60395;52.020;113.548;2023-01-10T09:31:49;175.70;;;59.33;;
72404;SDS011;60395;52.020;113.548;2023-01-10T09:34:52;244.43;;;73.93;;
72404;SDS011;60395;52.020;113.548;2023-01-10T09:37:57;240.65;;;70.38;;
72404;SDS011;60395;52.020;113.548;2023-01-10T09:44:16;190.20;;;58.20;;
72404;SDS011;60395;52.020;113.548;2023-01-10T09:47:26;304.08;;;95.68;;
72404;SDS011;60395;52.020;113.548;2023-01-10T09:54:01;628.83;;;223.45;;
72404;SDS011;60395;52.020;113.548;2023-01-10T09:57:15;627.72;;;225.02;;
72404;SDS011;60395;52.020;113.548;2023-01-10T10:00:21;582.83;;;196.10;;
72404;SDS011;60395;52.020;113.548;2023-01-10T10:03:45;529.17;;;172.13;;
72404;SDS011;60395;52.020;113.548;2023-01-10T10:06:56;501.92;;;152.77;;
72404;SDS011;60395;52.020;113.548;2023-01-10T10:09:59;237.32;;;67.05;;
72404;SDS011;60395;52.020;113.548;2023-01-10T10:16:49;402.85;;;124.88;;
72404;SDS011;60395;52.020;113.548;2023-01-10T10:36:53;435.50;;;131.23;;
72404;SDS011;60395;52.020;113.548;2023-01-10T10:40:04;519.67;;;168.38;;
72404;SDS011;60395;52.020;113.548;2023-01-10T10:43:17;549.58;;;177.82;;
72404;SDS011;60395;52.020;113.548;2023-01-10T10:46:23;546.58;;;181.93;;
72404;SDS011;60395;52.020;113.548;2023-01-10T10:52:58;575.80;;;195.25;;
72404;SDS011;60395;52.020;113.548;2023-01-10T10:56:04;516.47;;;163.95;;
72404;SDS011;60395;52.020;113.548;2023-01-10T10:59:14;540.80;;;164.13;;
72404;SDS011;60395;52.020;113.548;2023-01-10T11:05:30;510.00;;;153.13;;
72404;SDS011;60395;52.020;113.548;2023-01-10T11:08:45;262.55;;;75.72;;
72404;SDS011;60395;52.020;113.548;2023-01-10T11:11:51;454.67;;;134.38;;
72404;SDS011;60395;52.020;113.548;2023-01-10T11:14:56;468.83;;;146.57;;
72404;SDS011;60395;52.020;113.548;2023-01-10T11:18:05;458.73;;;135.80;;
72404;SDS011;60395;52.020;113.548;2023-01-10T11:21:13;551.63;;;174.52;;
72404;SDS011;60395;52.020;113.548;2023-01-10T11:27:44;636.53;;;231.85;;
72404;SDS011;60395;52.020;113.548;2023-01-10T11:30:52;486.30;;;145.88;;
72404;SDS011;60395;52.020;113.548;2023-01-10T11:33:56;594.42;;;193.30;;
72404;SDS011;60395;52.020;113.548;2023-01-10T11:37:02;352.13;;;110.55;;
72404;SDS011;60395;52.020;113.548;2023-01-10T11:43:26;403.33;;;124.90;;
72404;SDS011;60395;52.020;113.548;2023-01-10T11:46:31;488.77;;;144.52;;
72404;SDS011;60395;52.020;113.548;2023-01-10T11:49:36;205.63;;;56.58;;
72404;SDS011;60395;52.020;113.548;2023-01-10T11:52:42;243.27;;;79.32;;
72404;SDS011;60395;52.020;113.548;2023-01-10T11:55:47;433.05;;;130.40;;
72404;SDS011;60395;52.020;113.548;2023-01-10T11:58:50;173.20;;;48.67;;
72404;SDS011;60395;52.020;113.548;2023-01-10T12:01:55;161.63;;;46.33;;
72404;SDS011;60395;52.020;113.548;2023-01-10T12:05:02;527.05;;;173.88;;
72404;SDS011;60395;52.020;113.548;2023-01-10T12:08:10;320.63;;;96.13;;
72404;SDS011;60395;52.020;113.548;2023-01-10T12:11:35;338.00;;;99.70;;
72404;SDS011;60395;52.020;113.548;2023-01-10T12:14:38;279.40;;;83.78;;
72404;SDS011;60395;52.020;113.548;2023-01-10T12:17:42;77.10;;;22.40;;
72404;SDS011;60395;52.020;113.548;2023-01-10T12:20:53;166.07;;;41.20;;
72404;SDS011;60395;52.020;113.548;2023-01-10T12:24:06;63.80;;;21.27;;
72404;SDS011;60395;52.020;113.548;2023-01-10T12:27:14;49.75;;;15.77;;
72404;SDS011;60395;52.020;113.548;2023-01-10T12:30:22;53.97;;;19.10;;
72404;SDS011;60395;52.020;113.548;2023-01-10T12:33:32;72.50;;;22.20;;
72404;SDS011;60395;52.020;113.548;2023-01-10T12:37:00;66.82;;;21.88;;
72404;SDS011;60395;52.020;113.548;2023-01-10T12:40:15;62.15;;;19.55;;
72404;SDS011;60395;52.020;113.548;2023-01-10T12:43:41;80.20;;;24.95;;
72404;SDS011;60395;52.020;113.548;2023-01-10T12:50:28;275.83;;;72.70;;
72404;SDS011;60395;52.020;113.548;2023-01-10T12:53:38;394.33;;;114.07;;
72404;SDS011;60395;52.020;113.548;2023-01-10T12:56:46;464.85;;;140.15;;
72404;SDS011;60395;52.020;113.548;2023-01-10T12:59:51;531.00;;;159.10;;
72404;SDS011;60395;52.020;113.548;2023-01-10T13:02:57;450.02;;;141.25;;
72404;SDS011;60395;52.020;113.548;2023-01-10T13:06:02;538.83;;;175.00;;
72404;SDS011;60395;52.020;113.548;2023-01-10T13:09:13;364.90;;;111.68;;
72404;SDS011;60395;52.020;113.548;2023-01-10T13:12:23;291.85;;;80.22;;
72404;SDS011;60395;52.020;113.548;2023-01-10T13:15:40;399.70;;;121.53;;
72404;SDS011;60395;52.020;113.548;2023-01-10T13:19:01;355.42;;;102.88;;
72404;SDS011;60395;52.020;113.548;2023-01-10T13:22:16;383.52;;;111.50;;
72404;SDS011;60395;52.020;113.548;2023-01-10T13:25:26;415.48;;;121.72;;
72404;SDS011;60395;52.020;113.548;2023-01-10T13:28:37;393.80;;;110.63;;
72404;SDS011;60395;52.020;113.548;2023-01-10T13:31:43;116.97;;;36.35;;
72404;SDS011;60395;52.020;113.548;2023-01-10T13:34:47;199.07;;;56.42;;
72404;SDS011;60395;52.020;113.548;2023-01-10T13:37:51;302.37;;;91.77;;
72404;SDS011;60395;52.020;113.548;2023-01-10T13:41:06;285.35;;;82.95;;
72404;SDS011;60395;52.020;113.548;2023-01-10T13:44:31;139.15;;;42.33;;
72404;SDS011;60395;52.020;113.548;2023-01-10T13:48:03;104.57;;;30.85;;
72404;SDS011;60395;52.020;113.548;2023-01-10T13:51:25;95.45;;;30.17;;
72404;SDS011;60395;52.020;113.548;2023-01-10T13:54:29;109.65;;;32.10;;
72404;SDS011;60395;52.020;113.548;2023-01-10T13:57:52;120.72;;;35.72;;
72404;SDS011;60395;52.020;113.548;2023-01-10T14:01:24;144.05;;;40.53;;
72404;SDS011;60395;52.020;113.548;2023-01-10T14:05:06;250.80;;;70.97;;
72404;SDS011;60395;52.020;113.548;2023-01-10T14:08:19;311.55;;;92.38;;
72404;SDS011;60395;52.020;113.548;2023-01-10T14:11:28;296.95;;;88.38;;
72404;SDS011;60395;52.020;113.548;2023-01-10T14:14:58;154.52;;;46.40;;
72404;SDS011;60395;52.020;113.548;2023-01-10T14:18:31;236.98;;;65.65;;
72404;SDS011;60395;52.020;113.548;2023-01-10T14:21:41;368.50;;;104.53;;
72404;SDS011;60395;52.020;113.548;2023-01-10T14:24:48;482.42;;;144.45;;
72404;SDS011;60395;52.020;113.548;2023-01-10T14:27:54;452.13;;;133.10;;
72404;SDS011;60395;52.020;113.548;2023-01-10T14:31:18;405.50;;;122.45;;
72404;SDS011;60395;52.020;113.548;2023-01-10T14:34:31;148.52;;;46.30;;
72404;SDS011;60395;52.020;113.548;2023-01-10T14:37:45;113.20;;;38.50;;
72404;SDS011;60395;52.020;113.548;2023-01-10T14:41:15;100.28;;;32.15;;
72404;SDS011;60395;52.020;113.548;2023-01-10T14:44:31;118.57;;;34.53;;
72404;SDS011;60395;52.020;113.548;2023-01-10T14:47:44;101.38;;;31.83;;
72404;SDS011;60395;52.020;113.548;2023-01-10T14:50:48;83.18;;;28.90;;
72404;SDS011;60395;52.020;113.548;2023-01-10T14:53:58;135.93;;;39.08;;
72404;SDS011;60395;52.020;113.548;2023-01-10T14:57:03;114.70;;;37.90;;
72404;SDS011;60395;52.020;113.548;2023-01-10T15:00:23;132.88;;;41.85;;
72404;SDS011;60395;52.020;113.548;2023-01-10T15:03:43;153.45;;;43.97;;
72404;SDS011;60395;52.020;113.548;2023-01-10T15:07:00;161.70;;;46.38;;
72404;SDS011;60395;52.020;113.548;2023-01-10T15:10:18;146.45;;;43.83;;
72404;SDS011;60395;52.020;113.548;2023-01-10T15:13:25;133.48;;;36.65;;
72404;SDS011;60395;52.020;113.548;2023-01-10T15:16:29;189.00;;;59.03;;
72404;SDS011;60395;52.020;113.548;2023-01-10T15:19:34;196.57;;;49.97;;
72404;SDS011;60395;52.020;113.548;2023-01-10T15:22:39;255.50;;;75.82;;
72404;SDS011;60395;52.020;113.548;2023-01-10T15:25:53;398.25;;;117.93;;
72404;SDS011;60395;52.020;113.548;2023-01-10T15:32:37;476.85;;;143.55;;
72404;SDS011;60395;52.020;113.548;2023-01-10T15:35:41;455.25;;;135.27;;
72404;SDS011;60395;52.020;113.548;2023-01-10T15:38:45;300.42;;;84.10;;
72404;SDS011;60395;52.020;113.548;2023-01-10T15:41:54;321.80;;;97.88;;
72404;SDS011;60395;52.020;113.548;2023-01-10T15:45:26;407.15;;;110.90;;
72404;SDS011;60395;52.020;113.548;2023-01-10T15:48:33;442.35;;;130.20;;
72404;SDS011;60395;52.020;113.548;2023-01-10T15:51:46;481.17;;;156.05;;
72404;SDS011;60395;52.020;113.548;2023-01-10T15:54:49;507.42;;;153.70;;
72404;SDS011;60395;52.020;113.548;2023-01-10T15:57:52;448.60;;;134.02;;
72404;SDS011;60395;52.020;113.548;2023-01-10T16:00:56;468.10;;;139.57;;
72404;SDS011;60395;52.020;113.548;2023-01-10T16:04:02;433.25;;;124.80;;
72404;SDS011;60395;52.020;113.548;2023-01-10T16:07:09;408.13;;;116.75;;
72404;SDS011;60395;52.020;113.548;2023-01-10T16:10:21;142.73;;;51.08;;
72404;SDS011;60395;52.020;113.548;2023-01-10T16:13:27;55.13;;;17.08;;
72404;SDS011;60395;52.020;113.548;2023-01-10T16:16:34;219.77;;;58.45;;
72404;SDS011;60395;52.020;113.548;2023-01-10T16:19:38;276.27;;;75.95;;
72404;SDS011;60395;52.020;113.548;2023-01-10T16:22:42;276.60;;;76.80;;
72404;SDS011;60395;52.020;113.548;2023-01-10T16:25:51;281.20;;;85.97;;
72404;SDS011;60395;52.020;113.548;2023-01-10T16:28:56;321.17;;;94.07;;
72404;SDS011;60395;52.020;113.548;2023-01-10T16:31:59;350.38;;;103.35;;
72404;SDS011;60395;52.020;113.548;2023-01-10T16:35:02;387.17;;;109.45;;
72404;SDS011;60395;52.020;113.548;2023-01-10T16:38:07;381.40;;;111.43;;
72404;SDS011;60395;52.020;113.548;2023-01-10T16:41:12;320.63;;;95.80;;
72404;SDS011;60395;52.020;113.548;2023-01-10T16:44:34;387.10;;;116.32;;
72404;SDS011;60395;52.020;113.548;2023-01-10T16:47:38;402.37;;;118.10;;
72404;SDS011;60395;52.020;113.548;2023-01-10T16:50:41;332.65;;;104.60;;
72404;SDS011;60395;52.020;113.548;2023-01-10T16:53:45;174.73;;;50.35;;
72404;SDS011;60395;52.020;113.548;2023-01-10T16:56:49;200.13;;;54.28;;
72404;SDS011;60395;52.020;113.548;2023-01-10T16:59:52;217.73;;;64.15;;
72404;SDS011;60395;52.020;113.548;2023-01-10T17:02:56;295.20;;;86.07;;
72404;SDS011;60395;52.020;113.548;2023-01-10T17:05:59;288.27;;;87.50;;
72404;SDS011;60395;52.020;113.548;2023-01-10T17:09:03;350.77;;;99.10;;
72404;SDS011;60395;52.020;113.548;2023-01-10T17:12:09;319.90;;;90.57;;
72404;SDS011;60395;52.020;113.548;2023-01-10T17:15:19;276.90;;;76.85;;
72404;SDS011;60395;52.020;113.548;2023-01-10T17:18:23;309.08;;;81.75;;
72404;SDS011;60395;52.020;113.548;2023-01-10T17:21:29;218.82;;;65.78;;
72404;SDS011;60395;52.020;113.548;2023-01-10T17:24:33;278.08;;;78.57;;
72404;SDS011;60395;52.020;113.548;2023-01-10T17:27:36;294.00;;;85.80;;
72404;SDS011;60395;52.020;113.548;2023-01-10T17:30:39;278.35;;;79.35;;
72404;SDS011;60395;52.020;113.548;2023-01-10T17:33:42;273.75;;;79.75;;
72404;SDS011;60395;52.020;113.548;2023-01-10T17:36:45;252.55;;;79.38;;
72404;SDS011;60395;52.020;113.548;2023-01-10T17:39:49;180.77;;;55.22;;
72404;SDS011;60395;52.020;113.548;2023-01-10T17:42:52;222.25;;;65.32;;
72404;SDS011;60395;52.020;113.548;2023-01-10T17:45:55;240.70;;;66.80;;
72404;SDS011;60395;52.020;113.548;2023-01-10T17:49:02;208.73;;;66.72;;
72404;SDS011;60395;52.020;113.548;2023-01-10T17:52:05;306.25;;;84.82;;
72404;SDS011;60395;52.020;113.548;2023-01-10T17:55:08;241.50;;;68.72;;
72404;SDS011;60395;52.020;113.548;2023-01-10T17:58:12;215.35;;;63.17;;
72404;SDS011;60395;52.020;113.548;2023-01-10T18:01:19;237.80;;;67.88;;
72404;SDS011;60395;52.020;113.548;2023-01-10T18:04:26;228.25;;;61.78;;
72404;SDS011;60395;52.020;113.548;2023-01-10T18:07:29;198.23;;;61.63;;
72404;SDS011;60395;52.020;113.548;2023-01-10T18:10:32;202.95;;;59.80;;
72404;SDS011;60395;52.020;113.548;2023-01-10T18:13:36;199.60;;;57.25;;
72404;SDS011;60395;52.020;113.548;2023-01-10T18:16:39;196.32;;;56.72;;
72404;SDS011;60395;52.020;113.548;2023-01-10T18:19:42;172.02;;;48.67;;
72404;SDS011;60395;52.020;113.548;2023-01-10T18:22:46;154.00;;;45.90;;
72404;SDS011;60395;52.020;113.548;2023-01-10T18:26:08;153.93;;;41.90;;
72404;SDS011;60395;52.020;113.548;2023-01-10T18:29:12;175.68;;;46.00;;
72404;SDS011;60395;52.020;113.548;2023-01-10T18:32:15;130.15;;;40.67;;
72404;SDS011;60395;52.020;113.548;2023-01-10T18:35:19;179.57;;;49.72;;